createdAt,value
2023-02-25T17:23:30.148Z,97.40
2023-02-25T17:25:57.014Z,97.70
2023-02-25T17:28:29.167Z,97.60
2023-02-25T17:31:12.826Z,97.70
2023-02-25T17:33:47.344Z,97.70
2023-02-25T17:36:15.409Z,97.60
2023-02-25T17:38:43.701Z,97.70
2023-02-25T17:41:17.398Z,97.70
2023-02-25T17:43:43.946Z,97.60
2023-02-25T17:46:13.497Z,97.70
2023-02-25T17:48:43.168Z,97.60
2023-02-25T17:51:10.593Z,97.70
2023-02-25T17:53:39.256Z,97.70
2023-02-25T17:56:16.475Z,98.30
2023-02-25T17:58:43.932Z,97.90
2023-02-25T18:01:24.267Z,97.90
2023-02-25T18:11:57.395Z,97.10
2023-02-25T18:14:39.644Z,97.70
2023-02-25T18:17:16.581Z,97.80
2023-02-25T18:19:46.106Z,98.20
2023-02-25T18:22:30.775Z,97.90
2023-02-25T18:25:00.239Z,97.90
2023-02-25T18:27:32.743Z,97.80
2023-02-25T18:30:21.244Z,97.70
2023-02-25T18:32:48.132Z,97.40
2023-02-25T18:35:15.337Z,97.40
2023-02-25T18:37:43.074Z,97.40
2023-02-25T18:40:31.876Z,97.30
2023-02-25T18:42:59.787Z,97.40
2023-02-25T18:45:28.786Z,97.40
2023-02-25T18:48:00.411Z,97.40
2023-02-25T18:50:30.497Z,97.40
2023-02-25T18:52:57.772Z,97.50
2023-02-25T18:55:29.719Z,97.60
2023-02-25T18:57:56.355Z,97.60
2023-02-25T19:00:24.472Z,97.60
2023-02-25T19:02:58.028Z,97.60
2023-02-25T19:05:25.980Z,97.90
2023-02-25T19:07:52.791Z,97.90
2023-02-25T19:10:25.796Z,98.10
2023-02-25T19:13:04.149Z,98.40
2023-02-25T19:15:30.781Z,98.40
2023-02-25T19:17:57.350Z,98.60
2023-02-25T19:20:24.226Z,98.40
2023-02-25T19:22:53.094Z,98.40
2023-02-25T19:25:27.033Z,98.30
2023-02-25T19:27:55.710Z,98.00
2023-02-25T19:30:32.007Z,98.30
2023-02-25T19:33:02.356Z,98.40
2023-02-25T19:35:34.231Z,98.80
2023-02-25T19:38:00.923Z,98.50
2023-02-25T19:40:29.024Z,98.90
2023-02-25T19:42:56.015Z,98.50
2023-02-25T19:45:24.030Z,98.40
2023-02-25T19:47:51.862Z,98.80
